Time;durP1;ratioP1;P1;durP2;ratioP2;P2;SDS_P1;SDS_P2;PMS_P1;PMS_P2;Temp;Humidity;BMP_temperature;BMP_pressure;BME280_temperature;BME280_humidity;BME280_pressure;Samples;Min_cycle;Max_cycle;Signal;HPM_P1;HPM_P2
2022/09/06 00:01:41;;;;;;;3.72;2.30;;;;;;;;;;4420938;32;20375;-73
2022/09/06 00:04:07;;;;;;;3.28;2.22;;;;;;;;;;4420500;32;20041;-72
2022/09/06 00:06:32;;;;;;;4.25;2.60;;;;;;;;;;4421175;32;20046;-72
2022/09/06 00:08:58;;;;;;;3.83;2.40;;;;;;;;;;4420915;32;20021;-72
2022/09/06 00:11:23;;;;;;;4.18;2.35;;;;;;;;;;4406472;32;20316;-72
2022/09/06 00:13:49;;;;;;;5.68;2.17;;;;;;;;;;4421248;32;20052;-72
2022/09/06 00:16:18;;;;;;;2.22;1.98;;;;;;;;;;4400780;32;20050;-73
2022/09/06 00:18:43;;;;;;;2.87;2.25;;;;;;;;;;4419453;32;20057;-72
2022/09/06 00:21:19;;;;;;;4.00;3.10;;;;;;;;;;4420748;32;20355;-71
2022/09/06 00:23:53;;;;;;;7.60;3.45;;;;;;;;;;4421020;32;20108;-72
2022/09/06 00:26:20;;;;;;;4.80;2.53;;;;;;;;;;4420983;32;20068;-72
2022/09/06 00:28:45;;;;;;;4.45;2.55;;;;;;;;;;4420415;32;20096;-72
2022/09/06 00:31:12;;;;;;;3.95;2.67;;;;;;;;;;4411929;32;20367;-73
2022/09/06 00:33:37;;;;;;;2.85;2.50;;;;;;;;;;4419399;32;20026;-72
2022/09/06 00:36:03;;;;;;;2.72;2.40;;;;;;;;;;4420540;32;20022;-72
2022/09/06 00:38:28;;;;;;;3.25;2.42;;;;;;;;;;4421408;32;20030;-72
2022/09/06 00:40:54;;;;;;;3.90;2.30;;;;;;;;;;4421357;32;20072;-72
2022/09/06 00:43:19;;;;;;;6.40;3.00;;;;;;;;;;4420582;32;20026;-72
2022/09/06 00:45:45;;;;;;;5.70;3.00;;;;;;;;;;4419201;32;20022;-72
2022/09/06 00:48:10;;;;;;;2.58;2.37;;;;;;;;;;4420756;32;20038;-73
2022/09/06 00:50:35;;;;;;;3.33;2.70;;;;;;;;;;4420498;32;20131;-73
2022/09/06 00:53:01;;;;;;;6.03;2.75;;;;;;;;;;4420456;32;20048;-73
2022/09/06 00:55:27;;;;;;;4.32;2.62;;;;;;;;;;4421226;32;20089;-72
2022/09/06 00:57:53;;;;;;;3.85;2.55;;;;;;;;;;4420939;32;20103;-73
2022/09/06 01:00:18;;;;;;;5.72;2.80;;;;;;;;;;4419180;32;20389;-73
2022/09/06 01:02:44;;;;;;;7.82;3.03;;;;;;;;;;4418766;32;20073;-74
2022/09/06 01:05:10;;;;;;;4.30;3.30;;;;;;;;;;4419800;32;20052;-74
2022/09/06 01:07:35;;;;;;;7.95;4.00;;;;;;;;;;4405619;32;20026;-74
2022/09/06 01:10:19;;;;;;;4.20;3.08;;;;;;;;;;4422888;32;20021;-74
2022/09/06 01:12:57;;;;;;;5.53;3.80;;;;;;;;;;4424269;32;20057;-74
2022/09/06 01:15:28;;;;;;;7.25;3.60;;;;;;;;;;4423046;32;20404;-74
2022/09/06 01:18:12;;;;;;;3.72;3.28;;;;;;;;;;4424059;32;20018;-74
2022/09/06 01:20:56;;;;;;;6.05;4.90;;;;;;;;;;4423040;32;20022;-74
2022/09/06 01:23:40;;;;;;;5.32;3.95;;;;;;;;;;4424732;32;20021;-74
2022/09/06 01:26:24;;;;;;;6.05;3.85;;;;;;;;;;4424968;32;20026;-74
2022/09/06 01:28:50;;;;;;;5.97;3.40;;;;;;;;;;4423365;32;20151;-74
2022/09/06 01:31:15;;;;;;;7.28;4.10;;;;;;;;;;4407881;32;20019;-74
2022/09/06 01:34:01;;;;;;;6.03;4.60;;;;;;;;;;4422342;32;20049;-74
2022/09/06 01:36:31;;;;;;;8.55;4.82;;;;;;;;;;4402697;32;20026;-74
2022/09/06 01:38:56;;;;;;;5.65;4.43;;;;;;;;;;4418513;32;20055;-74
2022/09/06 01:41:22;;;;;;;8.82;4.97;;;;;;;;;;4423074;32;20029;-74
2022/09/06 01:43:49;;;;;;;6.62;5.15;;;;;;;;;;4424028;32;20097;-74
2022/09/06 01:46:18;;;;;;;7.87;6.50;;;;;;;;;;4416542;32;20136;-74
2022/09/06 01:49:09;;;;;;;6.05;5.20;;;;;;;;;;4423064;32;20071;-74
2022/09/06 01:51:50;;;;;;;5.20;4.70;;;;;;;;;;4423390;32;20079;-74
2022/09/06 01:54:23;;;;;;;7.60;5.78;;;;;;;;;;4423028;32;20041;-73
2022/09/06 01:56:55;;;;;;;7.85;6.12;;;;;;;;;;4423054;32;20035;-74
2022/09/06 01:59:33;;;;;;;8.35;6.55;;;;;;;;;;4421420;32;20030;-74
2022/09/06 02:02:11;;;;;;;8.25;7.45;;;;;;;;;;4407325;32;20022;-73
2022/09/06 02:04:56;;;;;;;9.88;6.82;;;;;;;;;;4420761;32;20045;-74
2022/09/06 02:07:26;;;;;;;10.15;7.57;;;;;;;;;;4422871;32;20030;-73
2022/09/06 02:09:58;;;;;;;8.63;7.72;;;;;;;;;;4422485;32;20116;-74
2022/09/06 02:12:24;;;;;;;8.98;7.68;;;;;;;;;;4424012;32;20026;-74
2022/09/06 02:14:54;;;;;;;7.65;5.97;;;;;;;;;;4422197;32;20030;-73
2022/09/06 02:17:24;;;;;;;7.90;6.57;;;;;;;;;;4423406;32;20030;-74
2022/09/06 02:19:55;;;;;;;10.38;7.93;;;;;;;;;;4421613;32;20033;-74
2022/09/06 02:22:22;;;;;;;8.77;7.87;;;;;;;;;;4422802;32;20052;-74
2022/09/06 02:24:50;;;;;;;12.02;7.45;;;;;;;;;;4422656;32;20120;-73
2022/09/06 02:27:15;;;;;;;9.27;7.65;;;;;;;;;;4422141;32;20050;-74
2022/09/06 02:29:41;;;;;;;9.38;8.23;;;;;;;;;;4408810;32;20091;-73
2022/09/06 02:32:06;;;;;;;11.05;8.98;;;;;;;;;;4408723;32;20076;-73
2022/09/06 02:34:31;;;;;;;15.68;9.98;;;;;;;;;;4422700;32;20059;-73
2022/09/06 02:36:57;;;;;;;12.18;9.65;;;;;;;;;;4422268;32;20046;-73
2022/09/06 02:39:23;;;;;;;10.90;9.73;;;;;;;;;;4422722;32;20087;-73
2022/09/06 02:41:49;;;;;;;12.85;9.30;;;;;;;;;;4422349;32;20030;-73
2022/09/06 02:44:14;;;;;;;12.55;10.52;;;;;;;;;;4407756;32;20592;-73
2022/09/06 02:46:39;;;;;;;12.55;10.27;;;;;;;;;;4404677;32;20010;-73
2022/09/06 02:49:05;;;;;;;11.77;10.23;;;;;;;;;;4405789;32;20095;-73
2022/09/06 02:51:34;;;;;;;12.70;11.38;;;;;;;;;;4406247;32;20023;-74
2022/09/06 02:54:00;;;;;;;13.85;9.90;;;;;;;;;;4406703;32;20030;-74
2022/09/06 02:56:25;;;;;;;12.27;10.27;;;;;;;;;;4406843;32;20091;-74
2022/09/06 02:58:50;;;;;;;12.55;11.25;;;;;;;;;;4407066;32;20087;-73
2022/09/06 03:01:15;;;;;;;12.68;11.38;;;;;;;;;;4406292;32;20034;-73
2022/09/06 03:03:41;;;;;;;13.10;11.25;;;;;;;;;;4392686;32;20025;-73
2022/09/06 03:06:06;;;;;;;13.25;11.88;;;;;;;;;;4406687;32;20034;-73
2022/09/06 03:08:32;;;;;;;15.45;13.35;;;;;;;;;;4406753;32;20105;-73
2022/09/06 03:10:58;;;;;;;12.20;10.40;;;;;;;;;;4422075;32;20079;-73
2022/09/06 03:13:23;;;;;;;15.93;13.23;;;;;;;;;;4421341;32;20033;-73
2022/09/06 03:15:50;;;;;;;13.57;12.18;;;;;;;;;;4422073;32;20052;-73
2022/09/06 03:18:16;;;;;;;14.65;13.02;;;;;;;;;;4409811;32;20026;-73
2022/09/06 03:20:41;;;;;;;12.65;10.20;;;;;;;;;;4420664;32;20029;-73
2022/09/06 03:23:06;;;;;;;13.77;12.07;;;;;;;;;;4422614;32;20135;-73
2022/09/06 03:25:31;;;;;;;14.55;11.60;;;;;;;;;;4421139;32;20082;-73
2022/09/06 03:27:57;;;;;;;14.07;12.63;;;;;;;;;;4408130;32;20041;-73
2022/09/06 03:30:22;;;;;;;15.88;12.23;;;;;;;;;;4421519;32;20408;-73
2022/09/06 03:32:48;;;;;;;14.90;13.50;;;;;;;;;;4407212;32;20453;-73
2022/09/06 03:35:14;;;;;;;15.02;13.45;;;;;;;;;;4421368;32;20471;-73
2022/09/06 03:37:39;;;;;;;16.55;13.10;;;;;;;;;;4421478;32;20022;-73
2022/09/06 03:40:05;;;;;;;14.32;12.50;;;;;;;;;;4421061;32;20087;-73
2022/09/06 03:42:30;;;;;;;16.98;12.35;;;;;;;;;;4421135;32;20445;-73
2022/09/06 03:44:55;;;;;;;14.68;13.18;;;;;;;;;;4413251;32;20030;-74
2022/09/06 03:47:21;;;;;;;15.30;12.93;;;;;;;;;;4406018;32;20386;-73
2022/09/06 03:49:46;;;;;;;13.32;11.80;;;;;;;;;;4414595;32;20048;-73
2022/09/06 03:52:11;;;;;;;17.30;13.05;;;;;;;;;;4419932;32;20029;-73
2022/09/06 03:54:37;;;;;;;13.43;11.40;;;;;;;;;;4408295;32;20030;-73
2022/09/06 03:57:05;;;;;;;18.05;12.02;;;;;;;;;;4406438;32;20142;-73
2022/09/06 03:59:31;;;;;;;15.63;12.55;;;;;;;;;;4420583;32;20095;-73
2022/09/06 04:01:56;;;;;;;14.52;13.00;;;;;;;;;;4418047;32;20450;-73
2022/09/06 04:04:21;;;;;;;15.38;11.05;;;;;;;;;;4421244;32;20482;-73
2022/09/06 04:06:47;;;;;;;15.48;11.05;;;;;;;;;;4422046;32;20068;-73
2022/09/06 04:09:12;;;;;;;12.30;10.77;;;;;;;;;;4421783;32;20044;-73
2022/09/06 04:11:37;;;;;;;14.10;12.70;;;;;;;;;;4421233;32;20159;-73
2022/09/06 04:14:03;;;;;;;16.73;13.27;;;;;;;;;;4420030;32;20026;-73
2022/09/06 04:16:37;;;;;;;14.60;13.18;;;;;;;;;;4406394;32;20022;-72
2022/09/06 04:19:03;;;;;;;14.05;12.43;;;;;;;;;;4421349;32;20034;-72
2022/09/06 04:21:28;;;;;;;15.40;12.75;;;;;;;;;;4420896;32;20083;-72
2022/09/06 04:23:54;;;;;;;16.02;12.98;;;;;;;;;;4421231;32;20585;-72
2022/09/06 04:26:19;;;;;;;16.12;13.82;;;;;;;;;;4420060;32;20372;-72
2022/09/06 04:28:45;;;;;;;15.40;13.80;;;;;;;;;;4419471;32;20056;-72
2022/09/06 04:31:10;;;;;;;15.48;13.73;;;;;;;;;;4415434;32;20152;-73
2022/09/06 04:33:37;;;;;;;15.68;11.57;;;;;;;;;;4406380;32;20068;-72
2022/09/06 04:36:03;;;;;;;15.35;11.63;;;;;;;;;;4399019;32;20045;-72
2022/09/06 04:38:29;;;;;;;19.80;12.52;;;;;;;;;;4410494;32;20034;-72
2022/09/06 04:40:55;;;;;;;16.60;12.02;;;;;;;;;;4416421;32;20443;-72
2022/09/06 04:43:21;;;;;;;19.73;11.80;;;;;;;;;;4419180;32;20053;-73
2022/09/06 04:45:46;;;;;;;13.85;10.85;;;;;;;;;;4419837;32;20409;-72
2022/09/06 04:48:11;;;;;;;13.80;12.07;;;;;;;;;;4419838;32;20313;-73
2022/09/06 04:50:37;;;;;;;19.23;11.43;;;;;;;;;;4421309;32;20025;-73
2022/09/06 04:53:02;;;;;;;20.98;11.93;;;;;;;;;;4420318;32;20030;-73
2022/09/06 04:55:30;;;;;;;19.98;12.70;;;;;;;;;;4406301;32;20075;-73
2022/09/06 04:57:57;;;;;;;20.12;12.15;;;;;;;;;;4420503;32;20069;-73
2022/09/06 05:00:22;;;;;;;18.08;10.25;;;;;;;;;;4420239;32;20029;-73
2022/09/06 05:02:48;;;;;;;15.75;11.88;;;;;;;;;;4420196;32;20076;-71
2022/09/06 05:05:13;;;;;;;19.10;14.25;;;;;;;;;;4420154;32;20022;-71
2022/09/06 05:07:38;;;;;;;13.50;12.00;;;;;;;;;;4421004;32;20033;-70
2022/09/06 05:10:04;;;;;;;17.40;11.82;;;;;;;;;;4419963;32;20057;-71
2022/09/06 05:12:30;;;;;;;20.67;14.70;;;;;;;;;;4420212;32;20034;-71
2022/09/06 05:14:58;;;;;;;23.98;16.67;;;;;;;;;;4420227;32;20432;-71
2022/09/06 05:17:23;;;;;;;20.17;15.25;;;;;;;;;;4421417;32;20078;-71
2022/09/06 05:19:49;;;;;;;15.82;13.82;;;;;;;;;;4419976;32;20030;-70
2022/09/06 05:22:14;;;;;;;18.30;14.82;;;;;;;;;;4420823;32;20054;-70
2022/09/06 05:24:39;;;;;;;19.45;13.60;;;;;;;;;;4418285;32;20399;-69
2022/09/06 05:27:06;;;;;;;19.70;14.63;;;;;;;;;;4416546;32;20111;-71
2022/09/06 05:29:31;;;;;;;21.25;15.13;;;;;;;;;;4420943;32;20362;-68
2022/09/06 05:31:57;;;;;;;19.12;13.07;;;;;;;;;;4420670;32;20022;-70
2022/09/06 05:34:22;;;;;;;20.55;15.43;;;;;;;;;;4420936;32;20457;-70
2022/09/06 05:36:47;;;;;;;20.12;15.05;;;;;;;;;;4419749;32;20041;-69
2022/09/06 05:39:13;;;;;;;19.30;15.10;;;;;;;;;;4419818;32;20034;-71
2022/09/06 05:41:38;;;;;;;24.00;15.15;;;;;;;;;;4405402;32;20026;-70
2022/09/06 05:44:03;;;;;;;20.37;16.35;;;;;;;;;;4419648;32;20438;-71
2022/09/06 05:46:28;;;;;;;19.02;14.65;;;;;;;;;;4405930;32;20034;-71
2022/09/06 05:48:54;;;;;;;20.80;15.80;;;;;;;;;;4421770;32;20363;-67
2022/09/06 05:51:19;;;;;;;22.20;17.05;;;;;;;;;;4420733;32;20056;-65
2022/09/06 05:53:51;;;;;;;18.00;14.82;;;;;;;;;;4404388;32;20351;-71
2022/09/06 05:59:11;;;;;;;21.60;14.82;;;;;;;;;;4420412;32;20124;-70
2022/09/06 06:01:56;;;;;;;21.35;15.63;;;;;;;;;;4420798;32;20038;-72
2022/09/06 06:04:40;;;;;;;25.80;14.87;;;;;;;;;;4420243;32;20092;-71
2022/09/06 06:07:15;;;;;;;17.12;13.85;;;;;;;;;;4408200;32;20420;-71
2022/09/06 06:09:41;;;;;;;16.65;13.82;;;;;;;;;;4408805;32;20079;-71
2022/09/06 06:12:12;;;;;;;23.10;13.15;;;;;;;;;;4422332;32;20034;-72
2022/09/06 06:14:38;;;;;;;19.15;13.95;;;;;;;;;;4422722;32;20025;-69
2022/09/06 06:17:03;;;;;;;15.23;13.52;;;;;;;;;;4421942;32;20031;-70
2022/09/06 06:19:28;;;;;;;17.23;13.18;;;;;;;;;;4422408;32;20314;-71
2022/09/06 06:21:57;;;;;;;16.77;13.55;;;;;;;;;;4422664;32;20046;-71
2022/09/06 06:24:22;;;;;;;20.77;14.10;;;;;;;;;;4422380;32;20021;-71
2022/09/06 06:26:51;;;;;;;17.95;12.73;;;;;;;;;;4422325;32;20109;-72
2022/09/06 06:29:28;;;;;;;19.00;13.02;;;;;;;;;;4422441;32;20096;-71
2022/09/06 06:31:53;;;;;;;13.70;11.63;;;;;;;;;;4422708;32;20032;-70
2022/09/06 06:34:20;;;;;;;21.60;13.65;;;;;;;;;;4422918;32;20029;-70
2022/09/06 06:36:46;;;;;;;19.10;11.95;;;;;;;;;;4422001;32;20026;-71
2022/09/06 06:39:11;;;;;;;19.25;13.70;;;;;;;;;;4421602;32;20396;-71
2022/09/06 06:41:40;;;;;;;19.98;12.60;;;;;;;;;;4421706;32;20022;-71
2022/09/06 06:44:05;;;;;;;16.42;10.90;;;;;;;;;;4422868;32;20402;-71
2022/09/06 06:46:36;;;;;;;17.33;12.82;;;;;;;;;;4409072;32;20365;-70
2022/09/06 06:49:02;;;;;;;16.40;10.95;;;;;;;;;;4422080;32;20018;-71
2022/09/06 06:51:28;;;;;;;13.40;10.40;;;;;;;;;;4408734;32;20047;-71
2022/09/06 06:53:55;;;;;;;15.43;9.70;;;;;;;;;;4421493;32;20018;-71
2022/09/06 06:56:24;;;;;;;13.15;10.65;;;;;;;;;;4422176;32;20459;-71
2022/09/06 06:58:51;;;;;;;16.80;11.38;;;;;;;;;;4421681;32;20452;-71
2022/09/06 07:01:18;;;;;;;11.73;10.23;;;;;;;;;;4408814;32;20075;-71
2022/09/06 07:03:43;;;;;;;19.25;12.55;;;;;;;;;;4422907;32;20029;-71
2022/09/06 07:06:11;;;;;;;13.40;10.75;;;;;;;;;;4421271;32;20082;-71
2022/09/06 07:08:37;;;;;;;13.07;10.00;;;;;;;;;;4408104;32;20022;-71
2022/09/06 07:11:03;;;;;;;13.62;11.35;;;;;;;;;;4421627;32;20092;-72
2022/09/06 07:13:28;;;;;;;14.68;12.75;;;;;;;;;;4421472;32;20030;-71
2022/09/06 07:16:13;;;;;;;18.98;13.10;;;;;;;;;;4421869;32;20056;-71
2022/09/06 07:18:44;;;;;;;16.35;12.35;;;;;;;;;;4408210;32;20026;-71
2022/09/06 07:21:13;;;;;;;16.77;12.43;;;;;;;;;;4421833;32;20362;-71
2022/09/06 07:23:41;;;;;;;13.73;9.40;;;;;;;;;;4407951;32;20363;-71
2022/09/06 07:26:07;;;;;;;12.85;11.50;;;;;;;;;;4421404;32;20030;-71
2022/09/06 07:28:32;;;;;;;17.27;12.60;;;;;;;;;;4420924;32;20045;-71
2022/09/06 07:30:59;;;;;;;15.05;12.25;;;;;;;;;;4421396;32;20371;-71
2022/09/06 07:33:24;;;;;;;13.80;11.52;;;;;;;;;;4422136;32;20408;-71
2022/09/06 07:35:59;;;;;;;15.40;11.00;;;;;;;;;;4421307;32;20450;-72
2022/09/06 07:38:29;;;;;;;16.12;11.82;;;;;;;;;;4422057;32;20018;-70
2022/09/06 07:40:55;;;;;;;24.02;11.55;;;;;;;;;;4421317;32;20110;-70
2022/09/06 07:43:23;;;;;;;16.27;9.65;;;;;;;;;;4421228;32;20135;-70
2022/09/06 07:45:57;;;;;;;12.73;9.77;;;;;;;;;;4421746;32;20030;-69
2022/09/06 07:48:22;;;;;;;13.52;8.32;;;;;;;;;;4421441;32;20030;-71
2022/09/06 07:50:47;;;;;;;15.57;10.48;;;;;;;;;;4421490;32;20021;-72
2022/09/06 07:53:13;;;;;;;43.33;15.10;;;;;;;;;;4422428;32;20022;-70
2022/09/06 07:55:38;;;;;;;18.30;11.07;;;;;;;;;;4421186;32;20439;-70
2022/09/06 07:58:03;;;;;;;11.55;9.18;;;;;;;;;;4421061;32;20042;-69
2022/09/06 08:00:29;;;;;;;14.55;11.07;;;;;;;;;;4406472;32;20057;-71
2022/09/06 08:02:54;;;;;;;16.67;11.48;;;;;;;;;;4420774;32;20061;-68
2022/09/06 08:05:20;;;;;;;13.93;11.63;;;;;;;;;;4421841;32;20404;-71
2022/09/06 08:07:48;;;;;;;16.90;12.55;;;;;;;;;;4407420;32;20050;-72
2022/09/06 08:13:21;;;;;;;13.62;11.80;;;;;;;;;;4417800;32;20045;-71
2022/09/06 08:15:46;;;;;;;16.58;11.23;;;;;;;;;;4420940;32;20371;-71
2022/09/06 08:18:12;;;;;;;13.35;10.57;;;;;;;;;;4421164;32;20042;-72
2022/09/06 08:20:37;;;;;;;13.15;10.52;;;;;;;;;;4421245;32;20344;-70
2022/09/06 08:23:07;;;;;;;15.25;11.40;;;;;;;;;;4420742;32;20021;-70
2022/09/06 08:25:38;;;;;;;14.87;10.93;;;;;;;;;;4421335;32;20098;-70
2022/09/06 08:28:04;;;;;;;13.25;11.77;;;;;;;;;;4421314;32;20055;-71
2022/09/06 08:30:29;;;;;;;12.30;10.55;;;;;;;;;;4420450;32;20022;-71
2022/09/06 08:32:55;;;;;;;12.57;9.20;;;;;;;;;;4421529;32;20099;-71
2022/09/06 08:35:21;;;;;;;22.13;11.27;;;;;;;;;;4421510;32;20098;-71
2022/09/06 08:37:46;;;;;;;13.15;8.85;;;;;;;;;;4420826;32;20372;-72
2022/09/06 08:40:13;;;;;;;14.63;11.05;;;;;;;;;;4420584;32;20034;-73
2022/09/06 08:42:39;;;;;;;35.90;13.32;;;;;;;;;;4420208;32;20056;-72
2022/09/06 08:45:08;;;;;;;16.90;10.13;;;;;;;;;;4406546;32;20031;-71
2022/09/06 08:47:34;;;;;;;16.30;10.98;;;;;;;;;;4420643;32;20409;-71
2022/09/06 08:50:09;;;;;;;14.15;10.50;;;;;;;;;;4421278;32;20017;-71
2022/09/06 08:52:50;;;;;;;17.08;10.30;;;;;;;;;;4406869;32;20017;-71
2022/09/06 08:55:39;;;;;;;14.13;10.27;;;;;;;;;;4422136;32;20074;-71
2022/09/06 08:58:10;;;;;;;11.93;7.97;;;;;;;;;;4412351;32;20322;-72
2022/09/06 09:00:37;;;;;;;10.57;8.73;;;;;;;;;;4420278;32;20104;-72
2022/09/06 09:03:07;;;;;;;14.18;9.32;;;;;;;;;;4420597;32;20029;-71
2022/09/06 09:05:34;;;;;;;10.80;8.88;;;;;;;;;;4420344;32;20069;-71
2022/09/06 09:08:22;;;;;;;11.05;7.82;;;;;;;;;;4420344;32;20030;-71
2022/09/06 09:10:49;;;;;;;11.88;7.97;;;;;;;;;;4420400;32;20021;-72
2022/09/06 09:13:17;;;;;;;13.65;7.90;;;;;;;;;;4420437;32;20092;-71
2022/09/06 09:21:49;;;;;;;10.23;7.80;;;;;;;;;;4357884;33;20105;-72
2022/09/06 09:24:15;;;;;;;9.77;8.27;;;;;;;;;;4412457;32;20069;-71
2022/09/06 09:26:52;;;;;;;18.92;11.25;;;;;;;;;;4421179;32;20030;-71
2022/09/06 09:29:24;;;;;;;12.65;8.13;;;;;;;;;;4421018;32;20109;-71
2022/09/06 09:32:06;;;;;;;;;;;;;;;;;;;;;
2022/09/06 09:34:59;;;;;;;9.15;8.15;;;;;;;;;;4419870;32;20045;-71
2022/09/06 09:37:22;;;;;;;16.65;8.63;;;;;;;;;;4421713;32;20095;-72
2022/09/06 09:40:16;;;;;;;11.43;8.65;;;;;;;;;;4422996;32;20026;-71
2022/09/06 09:45:55;;;;;;;13.15;8.77;;;;;;;;;;4420140;32;20079;-72
2022/09/06 09:48:25;;;;;;;17.23;8.15;;;;;;;;;;4423720;32;20076;-71
2022/09/06 09:50:51;;;;;;;11.43;10.00;;;;;;;;;;4422371;32;20022;-71
2022/09/06 09:53:21;;;;;;;12.23;8.57;;;;;;;;;;4422660;32;20052;-71
2022/09/06 09:55:46;;;;;;;16.05;9.48;;;;;;;;;;4422769;32;20025;-71
2022/09/06 09:58:22;;;;;;;13.50;9.07;;;;;;;;;;4423637;32;20048;-71
2022/09/06 10:00:49;;;;;;;11.20;8.93;;;;;;;;;;4423144;32;20072;-72
2022/09/06 10:03:16;;;;;;;11.82;8.07;;;;;;;;;;4423145;32;20049;-72
2022/09/06 10:06:03;;;;;;;14.60;9.00;;;;;;;;;;4423560;32;20026;-71
2022/09/06 10:09:03;;;;;;;11.40;8.05;;;;;;;;;;4424290;32;20048;-71
2022/09/06 10:11:39;;;;;;;12.77;8.00;;;;;;;;;;4422572;32;20435;-71
2022/09/06 10:14:24;;;;;;;11.63;8.27;;;;;;;;;;4409414;32;20026;-72
2022/09/06 10:16:51;;;;;;;14.80;8.75;;;;;;;;;;4410600;32;20022;-72
2022/09/06 10:19:31;;;;;;;12.25;8.43;;;;;;;;;;4423093;32;20369;-72
2022/09/06 10:22:01;;;;;;;12.02;9.23;;;;;;;;;;4422523;32;20382;-72
2022/09/06 10:24:55;;;;;;;16.23;8.93;;;;;;;;;;4423139;32;20084;-70
2022/09/06 10:27:27;;;;;;;12.57;8.93;;;;;;;;;;4422486;32;20022;-71
2022/09/06 10:33:14;;;;;;;12.60;9.13;;;;;;;;;;4422715;32;20068;-71
2022/09/06 10:35:40;;;;;;;9.90;8.30;;;;;;;;;;4422604;32;20103;-71
2022/09/06 10:38:24;;;;;;;10.93;7.90;;;;;;;;;;4422028;32;20054;-72
2022/09/06 10:40:50;;;;;;;11.70;8.40;;;;;;;;;;4422495;32;20400;-71
2022/09/06 10:43:19;;;;;;;9.82;8.50;;;;;;;;;;4408493;32;20025;-71
2022/09/06 10:46:07;;;;;;;13.13;9.20;;;;;;;;;;4422160;32;20531;-72
2022/09/06 10:49:05;;;;;;;12.30;8.70;;;;;;;;;;4423222;32;20037;-70
2022/09/06 10:51:37;;;;;;;15.25;8.55;;;;;;;;;;4386962;32;20090;-72
2022/09/06 10:54:05;;;;;;;11.32;8.52;;;;;;;;;;4421747;32;20055;-70
2022/09/06 10:56:33;;;;;;;15.45;8.60;;;;;;;;;;4421807;32;20112;-72
2022/09/06 10:59:09;;;;;;;13.05;8.13;;;;;;;;;;4407529;32;20482;-72
2022/09/06 11:01:52;;;;;;;13.25;7.87;;;;;;;;;;4408485;32;20052;-71
2022/09/06 11:04:23;;;;;;;10.10;7.35;;;;;;;;;;4421793;32;20033;-71
2022/09/06 11:06:51;;;;;;;9.10;7.28;;;;;;;;;;4422077;32;20022;-72
2022/09/06 11:09:19;;;;;;;8.93;6.30;;;;;;;;;;4421437;32;20378;-72
2022/09/06 11:14:50;;;;;;;8.52;6.03;;;;;;;;;;4421072;32;20056;-72
2022/09/06 11:17:39;;;;;;;12.15;6.80;;;;;;;;;;4421835;32;20094;-72
2022/09/06 11:20:23;;;;;;;10.15;7.05;;;;;;;;;;4421370;32;20096;-73
2022/09/06 11:22:58;;;;;;;11.85;7.43;;;;;;;;;;4408039;32;20026;-70
2022/09/06 11:25:48;;;;;;;14.50;7.82;;;;;;;;;;4421719;32;20405;-71
2022/09/06 11:28:21;;;;;;;12.68;7.32;;;;;;;;;;4421084;32;20086;-72
2022/09/06 11:30:46;;;;;;;15.43;7.78;;;;;;;;;;4421837;32;20477;-71
2022/09/06 11:33:21;;;;;;;9.52;7.10;;;;;;;;;;4421635;32;20022;-72
2022/09/06 11:35:46;;;;;;;10.45;7.82;;;;;;;;;;4422007;32;20086;-71
2022/09/06 11:38:15;;;;;;;13.73;7.93;;;;;;;;;;4421206;32;20416;-71
2022/09/06 11:40:42;;;;;;;9.88;7.35;;;;;;;;;;4421265;32;20060;-73
2022/09/06 11:43:08;;;;;;;11.10;7.53;;;;;;;;;;4421333;32;20052;-70
2022/09/06 11:45:46;;;;;;;11.07;6.43;;;;;;;;;;4420765;32;20030;-72
2022/09/06 11:48:32;;;;;;;9.68;5.70;;;;;;;;;;4427460;32;20041;-71
2022/09/06 11:50:58;;;;;;;7.22;5.95;;;;;;;;;;4421504;32;20026;-71
2022/09/06 11:53:26;;;;;;;12.65;5.97;;;;;;;;;;4421483;32;20078;-72
2022/09/06 11:55:57;;;;;;;12.60;5.57;;;;;;;;;;4421269;32;20026;-68
2022/09/06 11:58:27;;;;;;;13.77;6.32;;;;;;;;;;4420515;32;20026;-73
2022/09/06 12:01:15;;;;;;;14.35;7.37;;;;;;;;;;4406545;32;20026;-71
2022/09/06 12:03:40;;;;;;;12.02;7.25;;;;;;;;;;4405673;32;20030;-71
2022/09/06 12:06:14;;;;;;;10.68;6.68;;;;;;;;;;4405989;32;20393;-70
2022/09/06 12:08:40;;;;;;;13.07;6.57;;;;;;;;;;4404783;32;20064;-73
2022/09/06 12:11:21;;;;;;;12.45;5.72;;;;;;;;;;4405517;32;20034;-72
2022/09/06 12:13:49;;;;;;;10.07;5.25;;;;;;;;;;4405671;32;20022;-72
2022/09/06 12:16:16;;;;;;;10.55;4.85;;;;;;;;;;4406575;32;20389;-71
2022/09/06 12:18:41;;;;;;;5.47;4.40;;;;;;;;;;4405439;32;20466;-71
2022/09/06 12:21:07;;;;;;;7.87;4.55;;;;;;;;;;4405298;32;20034;-72
2022/09/06 12:23:35;;;;;;;9.35;4.35;;;;;;;;;;4405604;32;20034;-71
2022/09/06 12:26:02;;;;;;;6.65;4.15;;;;;;;;;;4404867;32;20026;-71
2022/09/06 12:28:39;;;;;;;8.15;4.32;;;;;;;;;;4405753;32;20030;-71
2022/09/06 12:31:23;;;;;;;14.10;6.22;;;;;;;;;;4404039;32;20061;-71
2022/09/06 12:33:48;;;;;;;7.72;3.85;;;;;;;;;;4405624;32;20026;-71
2022/09/06 12:36:13;;;;;;;5.62;3.10;;;;;;;;;;4404957;32;20091;-72
2022/09/06 12:38:39;;;;;;;7.85;4.15;;;;;;;;;;4404558;32;20052;-70
2022/09/06 12:41:07;;;;;;;4.97;3.33;;;;;;;;;;4405563;32;20056;-72
2022/09/06 12:44:07;;;;;;;7.03;3.92;;;;;;;;;;4404490;32;20022;-73
2022/09/06 13:46:11;;;;;;;;;;;;;;;;;;;;;
2022/09/06 13:52:00;;;;;;;11.48;3.15;;;;;;;;;;4260053;33;20048;-73
2022/09/06 13:55:20;;;;;;;5.55;2.10;;;;;;;;;;4296826;33;20086;-72
2022/09/06 14:06:47;;;;;;;5.55;2.50;;;;;;;;;;4303034;33;20047;-72
2022/09/06 14:24:39;;;;;;;11.18;4.05;;;;;;;;;;4302024;33;20114;-73
2022/09/06 14:27:05;;;;;;;7.78;2.85;;;;;;;;;;4300087;33;20082;-73
2022/09/06 14:29:31;;;;;;;7.22;2.30;;;;;;;;;;4313530;33;20024;-72
2022/09/06 14:32:15;;;;;;;4.93;2.20;;;;;;;;;;4382110;32;20091;-75
2022/09/06 14:38:07;;;;;;;7.65;2.62;;;;;;;;;;4344584;33;20074;-74
2022/09/06 14:41:20;;;;;;;4.97;2.20;;;;;;;;;;4345830;33;20040;-74
2022/09/06 15:08:47;;;;;;;7.20;2.30;;;;;;;;;;4176655;34;20042;-73
2022/09/06 15:11:14;;;;;;;3.70;2.17;;;;;;;;;;4209173;33;20034;-73
2022/09/06 15:13:50;;;;;;;5.70;2.37;;;;;;;;;;4262116;33;20054;-74
2022/09/06 15:16:15;;;;;;;;;;;;;;;;;;4404590;32;20133;-74
2022/09/06 15:24:49;;;;;;;4.53;2.17;;;;;;;;;;4329639;33;20071;-74
2022/09/06 15:27:20;;;;;;;5.30;2.30;;;;;;;;;;4397284;32;20495;-74
2022/09/06 15:29:45;;;;;;;6.22;2.58;;;;;;;;;;4407438;32;20037;-75
2022/09/06 15:39:10;;;;;;;7.47;2.67;;;;;;;;;;4300477;33;20110;-74
2022/09/06 15:47:29;;;;;;;6.47;2.22;;;;;;;;;;4270911;33;20080;-72
2022/09/06 15:49:57;;;;;;;8.65;1.90;;;;;;;;;;4318468;33;20047;-73
2022/09/06 15:52:22;;;;;;;5.62;2.03;;;;;;;;;;4345130;33;20409;-71
2022/09/06 15:57:41;;;;;;;3.33;1.92;;;;;;;;;;4391605;32;20044;-72
2022/09/06 16:09:01;;;;;;;6.28;2.08;;;;;;;;;;4420007;32;20095;-72
2022/09/06 16:39:57;;;;;;;11.23;3.28;;;;;;;;;;4417422;32;20083;-72
2022/09/06 17:02:24;;;;;;;4.55;2.40;;;;;;;;;;4420763;32;20059;-71
2022/09/06 17:04:52;;;;;;;6.72;2.53;;;;;;;;;;4421423;32;20076;-71
2022/09/06 17:47:17;;;;;;;9.73;2.60;;;;;;;;;;4419884;32;20052;-70
2022/09/06 17:49:51;;;;;;;7.25;3.20;;;;;;;;;;4406801;32;20052;-70
2022/09/06 18:01:44;;;;;;;8.85;2.22;;;;;;;;;;4422085;32;20045;-70
2022/09/06 18:04:18;;;;;;;11.15;2.28;;;;;;;;;;4409076;32;20454;-70
2022/09/06 18:16:07;;;;;;;6.28;2.62;;;;;;;;;;4356568;32;20090;-70
2022/09/06 18:21:53;;;;;;;10.25;2.47;;;;;;;;;;4359956;32;20074;-70
2022/09/06 18:24:37;;;;;;;6.10;2.53;;;;;;;;;;4360430;32;20488;-70
2022/09/06 18:33:38;;;;;;;9.93;3.10;;;;;;;;;;4407176;32;20043;-70
2022/09/06 18:39:32;;;;;;;10.60;3.62;;;;;;;;;;4359164;33;20451;-70
2022/09/06 18:42:10;;;;;;;7.43;2.83;;;;;;;;;;4396723;32;20045;-70
2022/09/06 18:45:23;;;;;;;;;;;;;;;;;;;;;
2022/09/06 18:47:54;;;;;;;5.68;2.40;;;;;;;;;;4405358;32;20030;-69
2022/09/06 18:50:44;;;;;;;9.45;2.80;;;;;;;;;;4404576;32;20055;-70
2022/09/06 18:59:34;;;;;;;8.05;2.95;;;;;;;;;;4405641;32;20427;-70
2022/09/06 19:16:55;;;;;;;5.72;3.97;;;;;;;;;;4330022;33;20114;-70
2022/09/06 19:19:40;;;;;;;8.35;3.78;;;;;;;;;;4338570;33;20429;-70
2022/09/06 19:22:06;;;;;;;7.18;4.85;;;;;;;;;;4369293;32;20083;-70
2022/09/06 19:24:52;;;;;;;15.32;5.82;;;;;;;;;;4407452;32;20030;-70
2022/09/06 19:27:17;;;;;;;11.48;6.40;;;;;;;;;;4407252;32;20026;-70
2022/09/06 19:29:48;;;;;;;13.75;6.20;;;;;;;;;;4407112;32;20306;-70
2022/09/06 19:32:33;;;;;;;13.00;6.97;;;;;;;;;;4406601;32;20022;-69
2022/09/06 19:35:12;;;;;;;;;;;;;;;;;;;;;
2022/09/06 19:37:46;;;;;;;9.35;7.07;;;;;;;;;;4417692;32;20030;-70
2022/09/06 19:40:31;;;;;;;8.80;6.43;;;;;;;;;;4420733;32;20091;-70
2022/09/06 19:42:59;;;;;;;8.02;6.18;;;;;;;;;;4407166;32;20414;-70
2022/09/06 19:45:57;;;;;;;9.18;5.93;;;;;;;;;;4421026;32;20391;-69
2022/09/06 19:48:27;;;;;;;12.00;6.45;;;;;;;;;;4343917;33;20499;-69
2022/09/06 19:51:13;;;;;;;10.43;6.70;;;;;;;;;;4416628;32;20157;-70
2022/09/06 19:54:01;;;;;;;13.52;6.72;;;;;;;;;;4419998;32;20026;-70
2022/09/06 19:56:32;;;;;;;7.35;6.15;;;;;;;;;;4410592;32;20111;-70
2022/09/06 19:58:59;;;;;;;12.65;7.00;;;;;;;;;;4406180;32;20083;-70
2022/09/06 20:01:29;;;;;;;11.20;6.05;;;;;;;;;;4406150;32;20023;-70